createdAt,value
2022-09-23T00:01:15.008Z,15.15
2022-09-23T00:03:47.353Z,12.90
2022-09-23T00:06:23.641Z,14.03
2022-09-23T00:08:51.930Z,12.53
2022-09-23T00:11:23.046Z,12.07
2022-09-23T00:13:54.593Z,11.70
2022-09-23T00:16:26.346Z,13.73
2022-09-23T00:18:53.339Z,9.00
2022-09-23T00:21:22.052Z,11.70
2022-09-23T00:23:49.422Z,12.60
2022-09-23T00:26:19.404Z,11.97
2022-09-23T00:28:47.415Z,13.33
2022-09-23T00:31:22.259Z,11.20
2022-09-23T00:33:54.975Z,12.83
2022-09-23T00:36:21.950Z,12.10
2022-09-23T00:38:48.861Z,11.87
2022-09-23T00:41:16.166Z,13.43
2022-09-23T00:43:48.937Z,11.70
2022-09-23T00:46:40.421Z,10.30
2022-09-23T00:49:23.125Z,13.80
2022-09-23T00:51:56.733Z,13.07
2022-09-23T00:54:27.372Z,13.07
2022-09-23T00:56:55.696Z,13.50
2022-09-23T00:59:24.492Z,12.60
2022-09-23T01:01:54.893Z,12.47
2022-09-23T01:04:27.342Z,13.83
2022-09-23T01:06:54.285Z,14.83
2022-09-23T01:09:23.000Z,13.93
2022-09-23T01:12:35.427Z,12.70
2022-09-23T01:15:49.656Z,18.97
2022-09-23T01:18:32.871Z,13.10
2022-09-23T01:21:29.854Z,11.83
2022-09-23T01:24:11.711Z,13.50
2022-09-23T01:27:02.852Z,13.87
2022-09-23T01:30:08.430Z,12.53
2022-09-23T01:33:09.133Z,12.07
2022-09-23T01:35:43.684Z,11.27
2022-09-23T01:38:34.879Z,13.83
2022-09-23T01:41:15.471Z,16.93
2022-09-23T01:44:08.122Z,14.83
2022-09-23T01:46:54.975Z,12.63
2022-09-23T01:49:35.435Z,11.70
2022-09-23T01:52:30.045Z,13.17
2022-09-23T01:55:16.662Z,13.27
2022-09-23T01:57:52.936Z,11.30
2022-09-23T02:00:23.558Z,11.70
2022-09-23T02:03:01.647Z,11.93
2022-09-23T02:05:37.589Z,13.27
2022-09-23T02:08:20.707Z,13.60
2022-09-23T02:10:59.780Z,11.47
2022-09-23T02:14:07.813Z,13.77
2022-09-23T02:16:47.578Z,11.97
2022-09-23T02:19:29.732Z,10.90
2022-09-23T02:22:23.753Z,10.20
2022-09-23T02:24:51.229Z,11.20
2022-09-23T02:27:33.310Z,11.47
2022-09-23T02:30:18.985Z,10.50
2022-09-23T02:33:12.137Z,10.63
2022-09-23T02:35:53.064Z,12.97
2022-09-23T02:38:46.669Z,11.77
2022-09-23T02:41:30.489Z,10.70
2022-09-23T02:44:08.264Z,12.60
2022-09-23T02:46:36.064Z,12.67
2022-09-23T02:49:23.248Z,12.30
2022-09-23T02:51:51.246Z,13.57
2022-09-23T02:54:25.707Z,15.67
2022-09-23T02:56:53.567Z,17.63
2022-09-23T02:59:23.098Z,16.40
2022-09-23T03:02:14.156Z,16.17
2022-09-23T03:04:52.059Z,18.27
2022-09-23T03:07:40.217Z,14.90
2022-09-23T03:10:24.823Z,13.33
2022-09-23T03:13:30.487Z,12.97
2022-09-23T03:16:17.166Z,14.77
2022-09-23T03:18:59.017Z,13.57
2022-09-23T03:21:37.718Z,13.27
2022-09-23T03:24:09.138Z,12.67
2022-09-23T03:26:39.748Z,12.57
2022-09-23T03:29:09.477Z,11.33
2022-09-23T03:31:40.152Z,16.13
2022-09-23T03:34:16.562Z,52.97
2022-09-23T03:37:00.571Z,94.63
2022-09-23T03:39:42.301Z,72.67
2022-09-23T03:42:17.180Z,58.50
2022-09-23T03:44:46.149Z,31.27
2022-09-23T03:47:16.204Z,15.57
2022-09-23T03:49:48.487Z,13.80
2022-09-23T03:52:17.170Z,10.67
2022-09-23T03:54:44.250Z,8.63
2022-09-23T03:57:12.800Z,13.37
2022-09-23T03:59:39.905Z,10.70
2022-09-23T04:02:07.953Z,10.70
2022-09-23T04:04:41.109Z,11.57
2022-09-23T04:07:08.304Z,13.30
2022-09-23T04:09:35.772Z,12.27
2022-09-23T04:12:03.956Z,11.47
2022-09-23T04:14:30.959Z,14.10
2022-09-23T04:16:58.253Z,12.60
2022-09-23T04:19:25.598Z,11.50
2022-09-23T04:21:53.765Z,10.40
2022-09-23T04:24:20.908Z,11.03
2022-09-23T04:26:52.472Z,10.47
2022-09-23T04:29:20.276Z,10.63
2022-09-23T04:31:47.574Z,10.00
2022-09-23T04:34:16.054Z,12.23
2022-09-23T04:36:45.184Z,10.10
2022-09-23T04:39:12.896Z,11.00
2022-09-23T04:41:39.761Z,12.30
2022-09-23T04:44:06.681Z,13.97
2022-09-23T04:46:33.690Z,11.97
2022-09-23T04:49:00.707Z,10.23
2022-09-23T04:51:27.781Z,11.97
2022-09-23T04:53:56.081Z,12.47
2022-09-23T04:56:26.974Z,12.83
2022-09-23T04:58:54.908Z,12.33
2022-09-23T05:01:26.879Z,9.90
2022-09-23T05:04:02.613Z,11.97
2022-09-23T05:06:31.565Z,10.67
2022-09-23T05:08:59.597Z,11.80
2022-09-23T05:11:29.932Z,9.50
2022-09-23T05:13:56.939Z,9.13
2022-09-23T05:16:24.972Z,11.53
2022-09-23T05:18:52.675Z,8.97
2022-09-23T05:21:22.822Z,10.27
2022-09-23T05:23:55.616Z,8.67
2022-09-23T05:26:25.784Z,10.70
2022-09-23T05:28:54.071Z,9.97
2022-09-23T05:31:24.511Z,9.73
2022-09-23T05:34:01.654Z,8.93
2022-09-23T05:36:34.459Z,11.77
2022-09-23T05:39:04.885Z,9.33
2022-09-23T05:41:31.778Z,12.07
2022-09-23T05:43:59.755Z,10.47
2022-09-23T05:46:30.154Z,11.17
2022-09-23T05:49:02.444Z,11.27
2022-09-23T05:51:35.935Z,13.10
2022-09-23T05:54:04.600Z,9.87
2022-09-23T05:56:33.543Z,12.23
2022-09-23T05:59:02.322Z,13.10
2022-09-23T06:01:35.645Z,16.00
2022-09-23T06:04:06.093Z,11.97
2022-09-23T06:06:40.111Z,14.80
2022-09-23T06:09:11.270Z,15.30
2022-09-23T06:11:38.286Z,16.30
2022-09-23T06:14:05.623Z,18.90
2022-09-23T06:16:35.274Z,18.73
2022-09-23T06:19:06.510Z,18.70
2022-09-23T06:21:39.585Z,16.80
2022-09-23T06:24:07.891Z,16.07
2022-09-23T06:26:37.992Z,17.27
2022-09-23T06:29:11.493Z,19.47
2022-09-23T06:31:40.709Z,20.00
2022-09-23T06:34:13.192Z,22.50
2022-09-23T06:36:44.994Z,24.27
2022-09-23T06:39:16.357Z,22.50
2022-09-23T06:41:45.370Z,20.57
2022-09-23T06:44:16.034Z,25.17
2022-09-23T06:46:43.826Z,25.33
2022-09-23T06:49:13.377Z,30.73
2022-09-23T06:51:41.152Z,23.17
2022-09-23T06:54:08.316Z,23.77
2022-09-23T06:56:39.155Z,27.77
2022-09-23T06:59:09.314Z,26.83
2022-09-23T07:01:36.352Z,27.70
2022-09-23T07:04:03.689Z,27.57
2022-09-23T07:06:30.618Z,28.90
2022-09-23T07:08:57.486Z,28.13
2022-09-23T07:11:24.452Z,26.70
2022-09-23T07:13:51.328Z,23.07
2022-09-23T07:16:18.694Z,26.93
2022-09-23T07:18:45.808Z,26.37
2022-09-23T07:21:18.113Z,23.67
2022-09-23T07:23:48.211Z,28.37
2022-09-23T07:26:17.010Z,25.90
2022-09-23T07:28:44.233Z,30.13
2022-09-23T07:31:14.991Z,25.03
2022-09-23T07:33:45.625Z,21.75
2022-09-23T07:36:17.272Z,26.50
2022-09-23T07:38:45.928Z,52.88
2022-09-23T07:41:17.783Z,50.03
2022-09-23T07:43:46.958Z,64.75
2022-09-23T07:46:17.847Z,42.63
2022-09-23T07:48:45.971Z,63.37
2022-09-23T07:51:20.555Z,39.03
2022-09-23T07:53:53.193Z,21.88
2022-09-23T07:56:22.418Z,21.50
2022-09-23T07:59:00.133Z,19.10
2022-09-23T08:01:40.496Z,26.77
2022-09-23T08:04:14.696Z,19.27
2022-09-23T08:07:00.705Z,17.00
2022-09-23T08:09:41.422Z,17.75
2022-09-23T08:12:15.227Z,18.45
2022-09-23T08:14:43.755Z,18.05
2022-09-23T08:17:13.094Z,17.95
2022-09-23T08:19:39.994Z,17.05
2022-09-23T08:22:07.022Z,19.85
2022-09-23T08:24:33.901Z,12.80
2022-09-23T08:27:01.454Z,14.35
2022-09-23T08:29:28.407Z,13.98
2022-09-23T08:31:55.555Z,16.88
2022-09-23T08:34:23.832Z,14.32
2022-09-23T08:36:52.522Z,14.82
2022-09-23T08:39:21.474Z,16.05
2022-09-23T08:42:28.500Z,15.65
2022-09-23T08:45:00.848Z,15.65
2022-09-23T08:47:58.313Z,14.90
2022-09-23T08:50:37.142Z,11.15
2022-09-23T08:53:13.100Z,15.60
2022-09-23T08:55:46.995Z,11.63
2022-09-23T08:59:08.213Z,12.27
2022-09-23T09:01:44.930Z,7.20
2022-09-23T09:04:28.501Z,12.40
2022-09-23T09:07:34.730Z,17.60
2022-09-23T09:10:16.070Z,10.07
2022-09-23T09:13:07.474Z,6.82
2022-09-23T09:16:15.209Z,7.78
2022-09-23T09:18:56.083Z,10.27
2022-09-23T09:21:37.207Z,11.05
2022-09-23T09:24:17.396Z,8.20
2022-09-23T09:26:44.317Z,8.60
2022-09-23T09:32:33.752Z,11.25
2022-09-23T09:35:11.212Z,32.60
2022-09-23T09:37:46.992Z,19.23
2022-09-23T09:40:17.078Z,12.60
2022-09-23T09:42:49.733Z,10.98
2022-09-23T09:45:30.145Z,9.27
2022-09-23T09:48:29.438Z,4.60
2022-09-23T09:50:56.394Z,4.57
2022-09-23T09:53:26.806Z,4.43
2022-09-23T09:56:04.945Z,2.92
2022-09-23T09:58:49.204Z,2.60
2022-09-23T10:01:25.697Z,3.30
2022-09-23T10:03:56.981Z,4.80
2022-09-23T10:06:32.717Z,6.43
2022-09-23T10:09:10.667Z,3.58
2022-09-23T10:11:39.521Z,4.07
2022-09-23T10:14:17.576Z,4.03
2022-09-23T10:16:47.169Z,4.05
2022-09-23T10:19:25.971Z,3.53
2022-09-23T10:21:57.036Z,2.97
2022-09-23T10:24:28.219Z,2.10
2022-09-23T10:27:08.562Z,1.92
2022-09-23T10:29:48.229Z,1.85
2022-09-23T10:32:37.547Z,1.60
2022-09-23T10:35:08.920Z,1.92
2022-09-23T10:37:59.311Z,6.18
2022-09-23T10:40:55.381Z,1.67
2022-09-23T10:44:19.802Z,0.95
2022-09-23T10:47:25.717Z,1.17
2022-09-23T10:50:14.802Z,1.45
2022-09-23T10:52:49.056Z,1.05
2022-09-23T10:55:54.584Z,0.85
2022-09-23T10:59:06.712Z,1.00
2022-09-23T11:01:58.291Z,1.15
2022-09-23T11:04:41.768Z,1.60
2022-09-23T11:07:37.281Z,0.90
2022-09-23T11:10:35.258Z,1.17
2022-09-23T11:14:05.233Z,1.45
2022-09-23T11:17:13.771Z,0.88
2022-09-23T11:20:09.751Z,0.70
2022-09-23T11:22:53.078Z,0.73
2022-09-23T11:26:00.243Z,0.98
2022-09-23T11:29:05.088Z,0.65
2022-09-23T11:31:47.348Z,1.23
2022-09-23T11:35:02.645Z,1.10
2022-09-23T11:37:41.117Z,1.90
2022-09-23T11:40:33.626Z,2.28
2022-09-23T11:43:15.816Z,4.05
2022-09-23T11:45:47.863Z,2.10
2022-09-23T11:48:30.734Z,1.00
2022-09-23T11:51:06.496Z,1.63
2022-09-23T11:53:45.121Z,1.08
2022-09-23T11:56:33.383Z,2.22
2022-09-23T11:59:52.279Z,1.20
2022-09-23T12:02:33.847Z,1.15
2022-09-23T12:05:08.573Z,1.20
2022-09-23T12:07:56.755Z,3.03
2022-09-23T12:11:09.730Z,1.23
2022-09-23T12:13:59.622Z,2.80
2022-09-23T12:17:22.858Z,0.80
2022-09-23T12:20:21.784Z,1.55
2022-09-23T12:23:19.328Z,2.33
2022-09-23T12:26:05.976Z,0.93
2022-09-23T12:28:49.855Z,1.15
2022-09-23T12:31:20.810Z,0.70
2022-09-23T12:33:54.599Z,1.45
2022-09-23T12:36:35.340Z,0.82
2022-09-23T12:39:37.236Z,3.53
2022-09-23T12:42:14.596Z,0.70
2022-09-23T12:44:47.539Z,0.70
2022-09-23T12:47:28.078Z,1.40
2022-09-23T12:49:59.092Z,0.80
2022-09-23T12:52:32.940Z,3.05
2022-09-23T12:55:38.484Z,2.03
2022-09-23T12:58:39.429Z,2.80
2022-09-23T13:01:21.451Z,1.52
2022-09-23T13:04:14.306Z,1.08
2022-09-23T13:06:57.007Z,0.82
2022-09-23T13:09:29.187Z,0.88
2022-09-23T13:12:02.586Z,1.55
2022-09-23T13:14:32.793Z,2.90
2022-09-23T13:17:00.184Z,1.33
2022-09-23T13:19:27.054Z,2.15
2022-09-23T13:21:53.861Z,2.00
2022-09-23T13:24:23.447Z,4.10
2022-09-23T13:26:54.171Z,1.23
2022-09-23T13:29:33.180Z,1.52
2022-09-23T13:32:02.758Z,4.68
2022-09-23T13:34:38.578Z,0.85
2022-09-23T13:37:25.125Z,2.55
2022-09-23T13:39:52.262Z,2.10
2022-09-23T13:42:28.789Z,2.60
2022-09-23T13:45:00.398Z,1.42
2022-09-23T13:47:29.688Z,2.95
2022-09-23T13:49:57.039Z,3.00
2022-09-23T13:52:31.831Z,1.63
2022-09-23T13:54:58.882Z,1.67
2022-09-23T13:57:29.235Z,2.40
2022-09-23T14:00:02.152Z,1.48
2022-09-23T14:02:31.242Z,1.50
2022-09-23T14:04:58.920Z,1.90
2022-09-23T14:07:26.640Z,1.85
2022-09-23T14:09:55.761Z,6.15
2022-09-23T14:12:23.063Z,1.67
2022-09-23T14:14:51.913Z,3.47
2022-09-23T14:17:22.916Z,2.28
2022-09-23T14:19:50.538Z,3.75
2022-09-23T14:22:29.325Z,4.63
2022-09-23T14:24:57.464Z,3.17
2022-09-23T14:27:31.352Z,2.00
2022-09-23T14:30:00.046Z,2.47
2022-09-23T14:32:29.473Z,1.95
2022-09-23T14:35:05.389Z,2.00
2022-09-23T14:37:56.862Z,3.42
2022-09-23T14:40:31.961Z,8.20
2022-09-23T14:43:11.376Z,2.40
2022-09-23T14:45:40.844Z,2.10
2022-09-23T14:48:18.529Z,2.60
2022-09-23T14:50:57.888Z,3.03
2022-09-23T14:53:42.939Z,4.07
2022-09-23T14:56:18.227Z,4.38
2022-09-23T14:58:55.764Z,3.72
2022-09-23T15:01:32.252Z,3.60
2022-09-23T15:04:11.179Z,6.97
2022-09-23T15:06:39.536Z,4.70
2022-09-23T15:09:07.452Z,2.13
2022-09-23T15:11:36.063Z,7.13
2022-09-23T15:14:33.129Z,2.17
2022-09-23T15:16:53.693Z,2.60
2022-09-23T15:19:21.810Z,1.55
2022-09-23T15:21:52.984Z,1.30
2022-09-23T15:24:44.779Z,1.70
2022-09-23T15:27:35.429Z,3.85
2022-09-23T15:30:18.954Z,2.20
2022-09-23T15:32:47.046Z,2.28
2022-09-23T15:35:23.703Z,3.72
2022-09-23T15:37:51.670Z,2.45
2022-09-23T15:40:23.172Z,2.05
2022-09-23T15:42:54.004Z,2.92
2022-09-23T15:45:28.975Z,1.48
2022-09-23T15:48:02.196Z,1.25
2022-09-23T15:50:30.175Z,5.55
2022-09-23T15:52:57.323Z,2.05
2022-09-23T15:55:24.222Z,5.30
2022-09-23T15:57:51.210Z,3.90
2022-09-23T16:00:18.214Z,1.60
2022-09-23T16:02:48.408Z,3.58
2022-09-23T16:05:50.935Z,3.20
2022-09-23T16:08:23.940Z,4.10
2022-09-23T16:10:51.641Z,6.10
2022-09-23T16:13:18.800Z,4.10
2022-09-23T16:15:46.122Z,2.95
2022-09-23T16:18:13.685Z,1.63
2022-09-23T16:20:44.592Z,2.78
2022-09-23T16:23:38.717Z,2.83
2022-09-23T16:26:17.066Z,4.28
2022-09-23T16:28:45.887Z,4.88
2022-09-23T16:31:15.959Z,2.72
2022-09-23T16:33:46.962Z,2.88
2022-09-23T16:36:21.909Z,2.83
2022-09-23T16:38:49.100Z,2.60
2022-09-23T16:41:16.011Z,5.20
2022-09-23T16:43:42.957Z,8.90
2022-09-23T16:46:12.812Z,5.85
2022-09-23T16:48:40.885Z,7.88
2022-09-23T16:51:20.482Z,10.63
2022-09-23T16:53:51.786Z,7.85
2022-09-23T16:56:27.315Z,5.07
2022-09-23T16:58:55.216Z,8.82
2022-09-23T17:01:44.029Z,8.43
2022-09-23T17:04:13.214Z,11.55
2022-09-23T17:06:52.441Z,13.85
2022-09-23T17:09:22.718Z,23.38
2022-09-23T17:12:16.169Z,25.77
2022-09-23T17:14:43.749Z,36.70
2022-09-23T17:17:10.644Z,33.33
2022-09-23T17:19:41.300Z,30.70
2022-09-23T17:22:08.205Z,27.80
2022-09-23T17:24:35.130Z,26.50
2022-09-23T17:27:02.029Z,22.98
2022-09-23T17:29:29.154Z,22.42
2022-09-23T17:31:56.182Z,19.35
2022-09-23T17:34:24.109Z,22.65
2022-09-23T17:36:50.998Z,27.55
2022-09-23T17:39:17.944Z,32.13
2022-09-23T17:41:45.548Z,32.50
2022-09-23T17:44:12.901Z,35.03
2022-09-23T17:46:39.876Z,31.88
2022-09-23T17:49:07.975Z,32.72
2022-09-23T17:51:34.973Z,33.92
2022-09-23T17:54:01.868Z,30.63
2022-09-23T17:56:31.595Z,26.25
2022-09-23T17:59:01.897Z,21.23
2022-09-23T18:01:30.090Z,29.77
2022-09-23T18:04:01.991Z,42.17
2022-09-23T18:06:31.770Z,73.22
2022-09-23T18:09:06.841Z,78.28
2022-09-23T18:11:37.973Z,80.60
2022-09-23T18:14:13.374Z,62.55
2022-09-23T18:16:42.368Z,63.75
2022-09-23T18:19:13.701Z,64.70
2022-09-23T18:21:46.823Z,60.35
2022-09-23T18:27:01.354Z,60.42
2022-09-23T18:29:28.669Z,73.57
2022-09-23T18:31:55.784Z,78.40
2022-09-23T18:34:23.680Z,82.63
2022-09-23T18:36:50.644Z,76.18
2022-09-23T18:39:17.823Z,69.82
2022-09-23T18:41:44.694Z,64.15
2022-09-23T18:44:11.740Z,53.97
2022-09-23T18:46:38.611Z,48.13
2022-09-23T18:49:24.121Z,46.47
2022-09-23T18:51:56.384Z,41.22
2022-09-23T18:54:25.343Z,38.35
2022-09-23T18:56:52.839Z,30.30
2022-09-23T18:59:25.911Z,28.02
2022-09-23T19:01:56.634Z,27.90
2022-09-23T19:04:26.444Z,26.60
2022-09-23T19:06:56.359Z,30.38
2022-09-23T19:09:23.769Z,30.33
2022-09-23T19:11:52.215Z,26.40
2022-09-23T19:14:19.511Z,25.52
2022-09-23T19:16:48.988Z,28.42
2022-09-23T19:19:16.050Z,45.45
2022-09-23T19:21:43.270Z,48.33
2022-09-23T19:24:14.399Z,47.42
2022-09-23T19:26:42.217Z,44.10
2022-09-23T19:29:15.634Z,39.30
2022-09-23T19:31:43.846Z,38.55
2022-09-23T19:34:19.035Z,36.15
2022-09-23T19:36:47.722Z,32.58
2022-09-23T19:39:21.040Z,39.60
2022-09-23T19:41:48.892Z,32.60
2022-09-23T19:44:16.598Z,30.08
2022-09-23T19:46:46.259Z,25.05
2022-09-23T19:49:13.770Z,21.92
2022-09-23T19:51:41.108Z,27.15
2022-09-23T19:54:09.249Z,24.55
2022-09-23T19:56:37.402Z,27.00
2022-09-23T19:59:07.327Z,23.70
2022-09-23T20:01:34.521Z,23.98
2022-09-23T20:04:02.091Z,28.67
2022-09-23T20:06:31.273Z,29.60
2022-09-23T20:09:02.183Z,30.20
2022-09-23T20:11:29.851Z,29.50
2022-09-23T20:14:04.090Z,31.67
2022-09-23T20:16:36.953Z,33.55
2022-09-23T20:19:05.761Z,31.85
2022-09-23T20:21:34.251Z,27.33
2022-09-23T20:24:02.237Z,29.40
2022-09-23T20:26:47.732Z,34.17
2022-09-23T20:29:15.024Z,34.00
2022-09-23T20:31:42.017Z,31.35
2022-09-23T20:34:10.729Z,34.50
2022-09-23T20:36:39.231Z,28.27
2022-09-23T20:39:06.864Z,28.17
2022-09-23T20:41:37.694Z,28.70
2022-09-23T20:44:07.980Z,26.75
2022-09-23T20:46:36.018Z,24.95
2022-09-23T20:49:03.705Z,32.17
2022-09-23T20:51:33.308Z,24.70
2022-09-23T20:54:00.777Z,26.33
2022-09-23T20:56:27.905Z,27.77
2022-09-23T20:58:55.227Z,27.63
2022-09-23T21:01:22.394Z,35.90
2022-09-23T21:03:52.320Z,38.58
2022-09-23T21:06:19.632Z,43.08
2022-09-23T21:08:46.823Z,47.80
2022-09-23T21:11:16.287Z,59.58
2022-09-23T21:13:51.650Z,62.70
2022-09-23T21:16:24.582Z,76.88
2022-09-23T21:18:52.353Z,70.82
2022-09-23T21:21:22.243Z,65.40
2022-09-23T21:23:50.302Z,55.05
2022-09-23T21:26:23.740Z,46.50
2022-09-23T21:28:57.845Z,45.50
2022-09-23T21:31:34.477Z,41.22
2022-09-23T21:34:09.439Z,48.05
2022-09-23T21:36:40.989Z,46.10
2022-09-23T21:39:09.396Z,49.53
2022-09-23T21:41:37.213Z,45.50
2022-09-23T21:44:05.064Z,45.25
2022-09-23T21:46:33.873Z,45.38
2022-09-23T21:49:03.556Z,37.42
2022-09-23T21:51:40.478Z,44.93
2022-09-23T21:54:14.151Z,58.28
2022-09-23T21:56:41.944Z,71.60
2022-09-23T21:59:08.926Z,54.78
2022-09-23T22:01:43.644Z,62.93
2022-09-23T22:04:17.797Z,74.93
2022-09-23T22:06:45.843Z,66.30
2022-09-23T22:09:17.043Z,62.15
2022-09-23T22:12:03.189Z,55.97
2022-09-23T22:14:30.694Z,48.67
2022-09-23T22:17:03.850Z,45.17
2022-09-23T22:19:35.693Z,46.03
2022-09-23T22:22:14.256Z,40.80
2022-09-23T22:24:46.744Z,41.53
2022-09-23T22:27:17.143Z,42.73
2022-09-23T22:30:02.628Z,36.77
2022-09-23T22:32:40.563Z,37.37
2022-09-23T22:35:16.615Z,33.93
2022-09-23T22:37:44.243Z,35.40
2022-09-23T22:40:14.395Z,38.37
2022-09-23T22:42:42.332Z,40.07
2022-09-23T22:45:11.155Z,37.73
2022-09-23T22:47:40.320Z,32.80
2022-09-23T22:50:09.477Z,40.90
2022-09-23T22:52:36.753Z,39.00
2022-09-23T22:55:04.760Z,37.37
2022-09-23T22:57:31.669Z,35.67
2022-09-23T22:59:58.557Z,37.93
2022-09-23T23:02:25.454Z,40.80
2022-09-23T23:04:52.341Z,35.70
2022-09-23T23:07:21.259Z,39.13
2022-09-23T23:09:50.805Z,36.57
2022-09-23T23:12:20.253Z,35.80
2022-09-23T23:14:48.909Z,37.93
2022-09-23T23:17:16.407Z,36.77
2022-09-23T23:19:44.012Z,43.90
2022-09-23T23:22:10.949Z,38.67
2022-09-23T23:24:37.861Z,37.23
2022-09-23T23:27:04.913Z,33.27
2022-09-23T23:29:31.874Z,38.37
2022-09-23T23:31:59.792Z,33.13
2022-09-23T23:34:26.746Z,35.63
2022-09-23T23:36:56.826Z,33.40
2022-09-23T23:39:25.043Z,33.80
2022-09-23T23:41:54.873Z,36.43
2022-09-23T23:44:23.872Z,33.27
2022-09-23T23:46:51.199Z,33.00
2022-09-23T23:49:18.183Z,31.97
2022-09-23T23:51:45.114Z,32.87
2022-09-23T23:54:12.670Z,31.13
2022-09-23T23:56:39.583Z,28.40
2022-09-23T23:59:06.543Z,30.67
